Time;durP1;ratioP1;P1;durP2;ratioP2;P2;SDS_P1;SDS_P2;PMS_P1;PMS_P2;Temp;Humidity;BMP_temperature;BMP_pressure;BME280_temperature;BME280_humidity;BME280_pressure;Samples;Min_cycle;Max_cycle;Signal;HPM_P1;HPM_P2
2022/09/13 00:00:14;;;;;;;1.13;1.03;;;12.30;99.90;;;;;;4989292;28;20538;-75
2022/09/13 00:02:40;;;;;;;0.33;0.33;;;12.20;99.90;;;;;;4995379;28;20500;-74
2022/09/13 00:05:06;;;;;;;0.60;0.60;;;12.20;99.90;;;;;;4990325;28;20034;-74
2022/09/13 00:07:32;;;;;;;1.17;1.05;;;12.20;99.90;;;;;;5008717;28;20030;-74
2022/09/13 00:09:57;;;;;;;0.63;0.63;;;12.20;99.90;;;;;;4996326;28;20340;-74
2022/09/13 00:12:23;;;;;;;1.27;1.17;;;12.20;99.90;;;;;;4989598;28;20073;-74
2022/09/13 00:14:48;;;;;;;0.40;0.40;;;12.20;99.90;;;;;;4989307;28;20034;-73
2022/09/13 00:17:14;;;;;;;0.97;0.73;;;12.20;99.90;;;;;;4990302;28;20039;-74
2022/09/13 00:19:40;;;;;;;0.53;0.53;;;12.20;99.90;;;;;;5008654;28;20038;-73
2022/09/13 00:22:05;;;;;;;0.40;0.40;;;12.20;99.90;;;;;;5008702;28;20518;-74
2022/09/13 00:24:32;;;;;;;0.60;0.60;;;12.20;99.90;;;;;;5000507;28;20079;-74
2022/09/13 00:26:59;;;;;;;0.85;0.85;;;12.20;99.90;;;;;;4987463;28;20039;-74
2022/09/13 00:29:25;;;;;;;8.57;3.15;;;12.20;99.90;;;;;;4988601;28;20117;-74
2022/09/13 00:31:51;;;;;;;0.60;0.60;;;12.30;99.90;;;;;;4988537;28;20545;-74
2022/09/13 00:34:16;;;;;;;1.83;1.67;;;12.30;99.90;;;;;;5004193;28;20029;-74
2022/09/13 00:36:42;;;;;;;0.63;0.63;;;12.20;99.90;;;;;;5008411;28;20030;-73
2022/09/13 00:39:09;;;;;;;1.30;1.20;;;12.30;99.90;;;;;;5003860;28;20030;-74
2022/09/13 00:41:35;;;;;;;1.40;0.93;;;12.30;99.90;;;;;;4987615;28;20035;-73
2022/09/13 00:44:01;;;;;;;0.77;0.77;;;12.30;99.90;;;;;;4989013;28;20046;-74
2022/09/13 00:46:41;;;;;;;0.40;0.40;;;12.30;99.90;;;;;;4989989;28;20038;-74
2022/09/13 00:49:07;;;;;;;2.60;1.40;;;12.20;99.90;;;;;;4988632;28;20034;-74
2022/09/13 00:51:33;;;;;;;0.57;0.57;;;12.30;99.90;;;;;;4988719;28;20113;-73
2022/09/13 00:53:59;;;;;;;1.20;0.93;;;12.30;99.90;;;;;;4988444;28;20060;-74
2022/09/13 00:56:34;;;;;;;0.73;0.70;;;12.30;99.90;;;;;;4992969;28;20034;-74
2022/09/13 00:59:05;;;;;;;0.40;0.40;;;13.30;99.90;;;;;;4993747;28;20103;-74
2022/09/13 01:01:42;;;;;;;0.68;0.68;;;12.30;99.90;;;;;;5006649;28;20467;-75
2022/09/13 01:04:08;;;;;;;0.60;0.60;;;12.40;99.90;;;;;;5006258;28;20032;-74
2022/09/13 01:06:37;;;;;;;0.47;0.47;;;12.30;99.90;;;;;;5008030;28;20037;-73
2022/09/13 01:09:04;;;;;;;0.50;0.50;;;12.40;99.90;;;;;;5006368;28;20065;-74
2022/09/13 01:11:29;;;;;;;;;;;12.30;99.90;;;;;;4989797;28;20030;-74
2022/09/13 01:13:57;;;;;;;0.40;0.40;;;12.30;99.90;;;;;;4993333;28;20002;-73
2022/09/13 01:16:22;;;;;;;0.45;0.45;;;12.30;99.90;;;;;;5006385;28;20063;-74
2022/09/13 01:18:48;;;;;;;1.33;1.23;;;12.30;99.90;;;;;;5006338;28;20042;-74
2022/09/13 01:21:35;;;;;;;0.70;0.70;;;12.30;99.90;;;;;;5007548;28;20170;-73
2022/09/13 01:24:16;;;;;;;0.30;0.30;;;12.30;99.90;;;;;;5007467;28;20497;-73
2022/09/13 01:26:53;;;;;;;1.75;1.10;;;12.40;99.90;;;;;;4989773;28;20041;-75
2022/09/13 01:29:56;;;;;;;0.73;0.73;;;12.30;99.90;;;;;;4987999;28;20038;-74
2022/09/13 01:32:50;;;;;;;1.00;0.90;;;12.40;99.90;;;;;;4986702;28;20034;-75
2022/09/13 01:35:27;;;;;;;0.93;0.88;;;12.40;99.90;;;;;;4988536;28;20034;-74
2022/09/13 01:38:05;;;;;;;0.38;0.38;;;12.40;99.90;;;;;;4988050;28;20052;-75
2022/09/13 01:40:51;;;;;;;2.20;1.60;;;12.40;99.90;;;;;;4993852;28;20113;-75
2022/09/13 01:43:38;;;;;;;1.17;0.90;;;12.40;99.90;;;;;;5007287;28;20054;-73
2022/09/13 01:46:07;;;;;;;16.17;1.33;;;12.40;99.90;;;;;;5007522;28;20042;-74
2022/09/13 01:49:10;;;;;;;0.55;0.55;;;12.50;99.90;;;;;;5006336;28;20036;-73
2022/09/13 01:51:44;;;;;;;2.38;1.38;;;12.50;99.90;;;;;;4986417;28;20053;-73
2022/09/13 01:54:16;;;;;;;1.25;1.15;;;12.50;99.90;;;;;;4986135;28;20030;-74
2022/09/13 01:57:03;;;;;;;0.95;0.93;;;12.50;99.90;;;;;;5000080;28;20082;-74
2022/09/13 01:59:37;;;;;;;0.80;0.77;;;12.50;99.90;;;;;;5005481;28;20430;-74
2022/09/13 02:02:12;;;;;;;1.15;1.15;;;13.40;99.90;;;;;;5005630;28;20455;-74
2022/09/13 02:04:43;;;;;;;1.52;0.35;;;12.50;99.90;;;;;;4999864;28;20068;-74
2022/09/13 02:07:23;;;;;;;1.27;1.17;;;12.40;99.90;;;;;;4987758;28;20527;-74
2022/09/13 02:09:56;;;;;;;1.52;1.42;;;12.50;99.90;;;;;;4987377;28;20030;-74
2022/09/13 02:12:27;;;;;;;0.80;0.80;;;12.50;99.90;;;;;;5004190;28;20485;-74
2022/09/13 02:15:16;;;;;;;1.17;1.15;;;12.50;99.90;;;;;;5006017;28;20330;-74
2022/09/13 02:18:05;;;;;;;0.73;0.73;;;12.50;99.90;;;;;;5009205;28;20065;-74
2022/09/13 02:20:34;;;;;;;1.30;1.08;;;12.50;99.90;;;;;;5023351;28;20129;-74
2022/09/13 02:23:06;;;;;;;0.57;0.55;;;12.50;99.90;;;;;;5010284;28;20512;-74
2022/09/13 02:25:34;;;;;;;1.17;1.13;;;12.50;99.90;;;;;;5009206;28;20042;-73
2022/09/13 02:28:06;;;;;;;0.60;0.60;;;12.80;99.90;;;;;;5007898;28;20030;-74
2022/09/13 02:30:34;;;;;;;1.75;1.65;;;12.30;99.90;;;;;;5009956;28;20030;-74
2022/09/13 02:33:25;;;;;;;1.85;1.75;;;12.50;99.90;;;;;;5010506;28;20050;-75
2022/09/13 02:35:59;;;;;;;0.85;0.85;;;12.40;99.90;;;;;;5005330;28;20474;-73
2022/09/13 02:38:33;;;;;;;0.60;0.60;;;12.50;99.90;;;;;;4988968;28;20026;-74
2022/09/13 02:41:13;;;;;;;1.73;1.63;;;12.40;99.90;;;;;;4992231;28;20052;-74
2022/09/13 02:43:44;;;;;;;0.90;0.90;;;12.50;99.90;;;;;;5008341;28;20447;-74
2022/09/13 02:46:33;;;;;;;2.83;1.52;;;12.50;99.90;;;;;;5010024;28;20071;-73
2022/09/13 02:49:22;;;;;;;0.55;0.55;;;12.40;99.90;;;;;;5009709;28;20038;-73
2022/09/13 02:52:05;;;;;;;0.75;0.70;;;12.40;99.90;;;;;;4990637;28;20186;-74
2022/09/13 02:54:42;;;;;;;0.80;0.80;;;12.50;99.90;;;;;;4990194;28;20019;-74
2022/09/13 02:57:15;;;;;;;1.48;1.38;;;12.40;99.90;;;;;;4998033;28;20095;-74
2022/09/13 02:59:41;;;;;;;0.52;0.52;;;12.50;99.90;;;;;;5009626;28;20049;-73
2022/09/13 03:02:11;;;;;;;0.40;0.40;;;12.40;99.90;;;;;;5009802;28;20516;-74
2022/09/13 03:04:37;;;;;;;0.60;0.60;;;12.40;99.90;;;;;;5009596;28;20071;-74
2022/09/13 03:07:06;;;;;;;1.10;1.10;;;12.40;99.90;;;;;;4990732;28;20046;-74
2022/09/13 03:09:32;;;;;;;1.05;1.00;;;12.40;99.90;;;;;;4989883;28;20079;-74
2022/09/13 03:12:10;;;;;;;0.60;0.60;;;12.40;99.90;;;;;;4995808;28;20056;-74
2022/09/13 03:14:41;;;;;;;1.45;0.75;;;12.40;99.90;;;;;;5009335;28;20022;-74
2022/09/13 03:17:39;;;;;;;1.38;1.27;;;12.40;99.90;;;;;;5009689;28;20105;-74
2022/09/13 03:20:13;;;;;;;0.63;0.63;;;12.40;99.90;;;;;;5007713;28;20037;-74
2022/09/13 03:23:09;;;;;;;0.32;0.32;;;12.40;99.90;;;;;;5008224;28;20034;-73
2022/09/13 03:25:42;;;;;;;0.60;0.60;;;12.40;99.90;;;;;;5007895;28;20068;-74
2022/09/13 03:28:27;;;;;;;0.82;0.82;;;12.40;99.90;;;;;;5006637;28;20030;-74
2022/09/13 03:31:06;;;;;;;0.95;0.95;;;12.40;99.90;;;;;;5009161;28;20367;-74
2022/09/13 03:33:46;;;;;;;0.80;0.80;;;12.30;99.90;;;;;;5009196;28;20022;-73
2022/09/13 03:36:20;;;;;;;0.95;0.95;;;12.30;99.90;;;;;;5006192;28;20037;-73
2022/09/13 03:39:19;;;;;;;0.40;0.40;;;12.30;99.90;;;;;;5009143;28;20030;-74
2022/09/13 03:41:49;;;;;;;;;;;12.30;99.90;;;;;;5015646;28;20456;-73
2022/09/13 03:44:18;;;;;;;0.85;0.85;;;12.30;99.90;;;;;;4987937;28;19929;-74
2022/09/13 03:46:47;;;;;;;0.30;0.30;;;12.30;99.90;;;;;;4989619;28;20038;-74
2022/09/13 03:49:15;;;;;;;1.15;1.08;;;12.30;99.90;;;;;;4989312;28;20113;-73
2022/09/13 03:51:44;;;;;;;0.75;0.75;;;12.30;99.90;;;;;;4988257;28;20030;-74
2022/09/13 03:54:15;;;;;;;1.00;0.93;;;12.30;99.90;;;;;;4989273;28;20105;-74
2022/09/13 03:56:40;;;;;;;0.63;0.63;;;12.30;99.90;;;;;;4987886;28;20109;-74
2022/09/13 03:59:06;;;;;;;1.13;1.07;;;12.10;99.90;;;;;;5006479;28;20034;-73
2022/09/13 04:01:32;;;;;;;0.63;0.63;;;12.20;99.90;;;;;;5008931;28;20049;-73
2022/09/13 04:03:57;;;;;;;2.50;2.30;;;12.30;99.90;;;;;;5008643;28;20034;-73
2022/09/13 04:06:23;;;;;;;0.73;0.73;;;12.30;99.90;;;;;;5003290;28;20034;-74
2022/09/13 04:08:49;;;;;;;0.40;0.40;;;12.30;99.90;;;;;;4987893;28;20030;-74
2022/09/13 04:11:15;;;;;;;1.80;1.67;;;12.30;99.90;;;;;;4987888;28;20037;-73
2022/09/13 04:13:40;;;;;;;1.03;1.00;;;12.10;99.90;;;;;;5000465;28;20042;-74
2022/09/13 04:16:07;;;;;;;0.80;0.80;;;12.20;99.90;;;;;;5007265;28;20156;-74
2022/09/13 04:18:33;;;;;;;2.88;1.52;;;12.20;99.90;;;;;;5007322;28;20033;-73
2022/09/13 04:20:59;;;;;;;0.97;0.97;;;12.30;99.90;;;;;;5006877;28;20038;-73
2022/09/13 04:23:26;;;;;;;;;;;12.10;99.90;;;;;;4968856;28;20034;-74
2022/09/13 04:25:52;;;;;;;0.75;0.75;;;12.10;99.90;;;;;;4969592;28;20145;-74
2022/09/13 04:28:18;;;;;;;0.30;0.30;;;12.10;99.90;;;;;;4983159;28;20022;-75
2022/09/13 04:30:45;;;;;;;1.25;1.15;;;12.10;99.90;;;;;;5008422;28;20427;-74
2022/09/13 04:33:11;;;;;;;2.00;1.83;;;12.80;99.90;;;;;;5008382;28;20034;-74
2022/09/13 04:35:38;;;;;;;1.42;1.33;;;12.10;99.90;;;;;;5008288;28;20026;-74
2022/09/13 04:38:04;;;;;;;2.40;1.30;;;12.10;99.90;;;;;;4991552;28;20073;-74
2022/09/13 04:40:30;;;;;;;1.23;1.13;;;12.10;99.90;;;;;;4988542;28;20088;-74
2022/09/13 04:42:56;;;;;;;0.77;0.75;;;12.10;99.90;;;;;;4989180;28;20477;-74
2022/09/13 04:45:22;;;;;;;2.40;1.77;;;12.10;99.90;;;;;;5008508;28;20038;-73
2022/09/13 04:47:52;;;;;;;0.95;0.95;;;12.00;99.90;;;;;;5008121;28;20043;-73
2022/09/13 04:50:19;;;;;;;0.63;0.63;;;12.10;99.90;;;;;;5008109;28;20061;-73
2022/09/13 04:52:45;;;;;;;;;;;12.00;99.90;;;;;;4998365;28;20025;-75
2022/09/13 04:55:11;;;;;;;0.68;0.68;;;12.00;99.90;;;;;;4987231;28;19910;-74
2022/09/13 04:57:37;;;;;;;2.43;1.87;;;12.00;99.90;;;;;;4989075;28;20500;-74
2022/09/13 05:00:03;;;;;;;1.10;1.10;;;12.00;99.90;;;;;;5003533;28;20271;-74
2022/09/13 05:02:29;;;;;;;;;;;12.00;99.90;;;;;;5008676;28;20053;-74
2022/09/13 05:04:55;;;;;;;0.55;0.55;;;12.00;99.90;;;;;;5007758;28;19956;-74
2022/09/13 05:07:20;;;;;;;0.60;0.60;;;12.00;99.90;;;;;;5003007;28;20034;-74
2022/09/13 05:09:46;;;;;;;0.83;0.83;;;12.00;99.90;;;;;;4988128;28;20030;-74
2022/09/13 05:12:12;;;;;;;2.50;1.57;;;12.20;99.90;;;;;;4988460;28;20034;-74
2022/09/13 05:14:37;;;;;;;1.10;1.00;;;12.10;99.90;;;;;;4989012;28;20090;-74
2022/09/13 05:17:03;;;;;;;1.20;1.10;;;12.00;99.90;;;;;;4987621;28;20031;-74
2022/09/13 05:19:29;;;;;;;0.63;0.63;;;12.10;99.90;;;;;;4986952;28;20030;-74
2022/09/13 05:21:54;;;;;;;1.70;1.27;;;12.10;99.90;;;;;;4996155;28;20061;-73
2022/09/13 05:24:20;;;;;;;1.10;1.03;;;12.00;99.90;;;;;;5007353;28;20267;-74
2022/09/13 05:26:45;;;;;;;1.30;1.20;;;11.90;99.90;;;;;;5008558;28;20037;-73
2022/09/13 05:29:11;;;;;;;1.57;1.50;;;12.00;99.90;;;;;;5002193;28;20037;-74
2022/09/13 05:31:39;;;;;;;1.37;1.27;;;11.90;99.90;;;;;;4995857;28;20078;-74
2022/09/13 05:34:10;;;;;;;1.55;1.45;;;11.90;99.90;;;;;;5005793;28;20030;-73
2022/09/13 05:36:36;;;;;;;0.80;0.70;;;11.90;99.90;;;;;;5007629;28;20067;-73
2022/09/13 05:39:04;;;;;;;0.55;0.55;;;11.80;99.90;;;;;;5005561;28;20069;-73
2022/09/13 05:41:30;;;;;;;0.90;0.90;;;11.80;99.90;;;;;;5005993;28;20038;-75
2022/09/13 05:43:57;;;;;;;0.60;0.60;;;11.80;99.90;;;;;;5005690;28;20048;-74
2022/09/13 05:46:22;;;;;;;1.58;1.48;;;11.70;99.90;;;;;;5005486;28;20500;-74
2022/09/13 05:48:48;;;;;;;1.07;1.07;;;11.80;99.90;;;;;;5005632;28;20117;-74
2022/09/13 05:51:15;;;;;;;1.17;0.98;;;11.70;99.90;;;;;;5006052;28;20381;-74
2022/09/13 05:53:43;;;;;;;1.63;1.38;;;11.70;99.90;;;;;;4987744;28;20491;-74
2022/09/13 05:56:12;;;;;;;0.45;0.45;;;11.70;99.90;;;;;;4987882;28;20031;-73
2022/09/13 05:58:39;;;;;;;0.73;0.73;;;11.70;99.90;;;;;;4987161;28;20026;-74
2022/09/13 06:01:05;;;;;;;;;;;11.60;99.90;;;;;;4989056;28;20035;-75
2022/09/13 06:03:30;;;;;;;0.43;0.43;;;11.60;99.90;;;;;;4986314;28;19932;-74
2022/09/13 06:05:57;;;;;;;1.03;1.03;;;11.60;99.90;;;;;;4987374;28;20096;-74
2022/09/13 06:08:23;;;;;;;;;;;11.60;99.90;;;;;;5003116;28;20483;-74
2022/09/13 06:10:56;;;;;;;0.65;0.65;;;11.60;99.90;;;;;;5007145;28;19920;-74
2022/09/13 06:13:22;;;;;;;1.05;1.02;;;11.60;99.90;;;;;;5003538;28;20134;-75
2022/09/13 06:15:48;;;;;;;0.40;0.40;;;11.60;99.90;;;;;;4986071;28;20045;-74
2022/09/13 06:18:14;;;;;;;0.57;0.57;;;11.60;99.90;;;;;;4986086;28;20031;-73
2022/09/13 06:20:39;;;;;;;1.07;1.07;;;11.60;99.90;;;;;;4987464;28;20550;-73
2022/09/13 06:23:05;;;;;;;0.73;0.70;;;11.60;99.90;;;;;;4987341;28;20494;-73
2022/09/13 06:25:31;;;;;;;1.53;1.43;;;11.60;99.90;;;;;;4987426;28;20029;-74
2022/09/13 06:27:57;;;;;;;1.25;1.20;;;11.60;99.90;;;;;;4985986;28;20316;-74
2022/09/13 06:30:22;;;;;;;3.00;1.23;;;11.50;99.90;;;;;;5002302;28;20038;-75
2022/09/13 06:32:48;;;;;;;4.40;3.30;;;11.60;99.90;;;;;;4991272;28;20034;-74
2022/09/13 06:35:15;;;;;;;1.77;1.67;;;11.60;99.90;;;;;;5006817;28;20026;-73
2022/09/13 06:37:41;;;;;;;1.40;1.30;;;11.60;99.90;;;;;;5007087;28;20427;-74
2022/09/13 06:40:08;;;;;;;0.67;0.67;;;11.70;99.90;;;;;;4991723;28;20042;-74
2022/09/13 06:42:34;;;;;;;0.47;0.47;;;11.70;99.90;;;;;;4987934;28;20062;-74
2022/09/13 06:45:00;;;;;;;0.70;0.70;;;11.70;99.90;;;;;;4986497;28;20455;-75
2022/09/13 06:47:26;;;;;;;0.80;0.80;;;11.60;99.90;;;;;;4987475;28;20126;-74
2022/09/13 06:49:51;;;;;;;0.80;0.80;;;11.60;99.90;;;;;;4986896;28;20087;-74
2022/09/13 06:52:17;;;;;;;1.00;0.97;;;11.60;99.90;;;;;;4987113;28;20031;-73
2022/09/13 06:54:43;;;;;;;2.20;2.10;;;11.60;99.90;;;;;;5006583;28;20144;-75
2022/09/13 06:57:08;;;;;;;2.73;2.27;;;12.30;99.90;;;;;;5005113;28;20030;-74
2022/09/13 06:59:34;;;;;;;1.30;1.23;;;11.60;99.90;;;;;;5003319;28;20032;-74
2022/09/13 07:02:00;;;;;;;0.53;0.53;;;11.60;99.90;;;;;;5007282;28;20121;-74
2022/09/13 07:04:30;;;;;;;2.07;1.87;;;11.60;99.90;;;;;;5010373;28;20033;-74
2022/09/13 07:06:57;;;;;;;1.15;1.10;;;11.60;99.90;;;;;;5008551;28;20038;-75
2022/09/13 07:09:22;;;;;;;1.08;1.00;;;11.60;99.90;;;;;;5008771;28;20030;-73
2022/09/13 07:11:50;;;;;;;1.87;1.77;;;12.30;99.90;;;;;;5008738;28;20034;-74
2022/09/13 07:14:18;;;;;;;1.98;1.45;;;11.70;99.90;;;;;;5008934;28;20497;-75
2022/09/13 07:16:45;;;;;;;1.17;0.98;;;11.70;99.90;;;;;;5009830;28;20128;-74
2022/09/13 07:19:12;;;;;;;;;;;11.70;99.90;;;;;;5010112;28;20044;-74
2022/09/13 07:21:38;;;;;;;0.50;0.50;;;11.80;99.90;;;;;;5009790;28;20044;-74
2022/09/13 07:24:04;;;;;;;1.77;1.67;;;11.70;99.90;;;;;;5008289;28;20363;-74
2022/09/13 07:26:30;;;;;;;1.73;1.63;;;11.70;99.90;;;;;;4990598;28;20039;-74
2022/09/13 07:28:58;;;;;;;1.60;1.50;;;11.70;99.90;;;;;;4988848;28;20445;-74
2022/09/13 07:31:33;;;;;;;1.65;1.50;;;11.70;99.90;;;;;;5006640;28;20034;-74
2022/09/13 07:34:01;;;;;;;0.77;0.77;;;11.70;99.90;;;;;;5007980;28;20489;-73
2022/09/13 07:36:28;;;;;;;1.13;1.13;;;11.70;99.90;;;;;;4995402;28;20038;-74
2022/09/13 07:38:54;;;;;;;1.35;1.23;;;11.70;99.90;;;;;;4989755;28;20065;-74
2022/09/13 07:41:21;;;;;;;2.53;1.60;;;11.70;99.90;;;;;;5006707;28;20061;-75
2022/09/13 07:43:48;;;;;;;1.33;0.93;;;11.70;99.90;;;;;;5007264;28;20037;-74
2022/09/13 07:46:20;;;;;;;3.08;1.58;;;11.70;99.90;;;;;;4994124;28;20053;-75
2022/09/13 07:48:46;;;;;;;1.42;1.33;;;11.70;99.90;;;;;;4989540;28;20030;-74
2022/09/13 07:51:17;;;;;;;1.02;1.02;;;11.80;99.90;;;;;;4995571;28;20034;-74
2022/09/13 07:53:44;;;;;;;1.83;1.42;;;11.80;99.90;;;;;;5008939;28;20034;-74
2022/09/13 07:56:12;;;;;;;2.88;1.35;;;11.90;99.90;;;;;;5008050;28;20030;-75
2022/09/13 07:58:40;;;;;;;1.58;1.48;;;12.00;99.90;;;;;;5009051;28;20477;-74
2022/09/13 08:01:10;;;;;;;0.85;0.85;;;12.00;99.90;;;;;;5008472;28;20033;-74
2022/09/13 08:03:36;;;;;;;9.40;1.30;;;12.00;99.90;;;;;;5008898;28;20040;-74
2022/09/13 08:06:03;;;;;;;0.98;0.95;;;12.10;99.90;;;;;;5008826;28;20046;-74
2022/09/13 08:08:31;;;;;;;0.80;0.77;;;12.00;99.90;;;;;;5007396;28;20536;-73
2022/09/13 08:10:57;;;;;;;2.78;1.92;;;12.00;99.90;;;;;;5008907;28;20026;-74
2022/09/13 08:13:23;;;;;;;1.77;1.67;;;12.00;99.90;;;;;;5006929;28;20030;-74
2022/09/13 08:15:49;;;;;;;1.65;1.55;;;12.00;99.90;;;;;;5008677;28;20046;-74
2022/09/13 08:18:18;;;;;;;5.50;1.97;;;12.00;99.90;;;;;;5007650;28;20125;-74
2022/09/13 08:20:44;;;;;;;0.55;0.55;;;12.00;99.90;;;;;;5008591;28;20099;-73
2022/09/13 08:23:11;;;;;;;1.00;1.00;;;12.00;99.90;;;;;;5008872;28;20469;-74
2022/09/13 08:25:37;;;;;;;1.00;0.98;;;12.10;99.90;;;;;;5008546;28;20065;-74
2022/09/13 08:28:09;;;;;;;1.63;1.52;;;12.10;99.90;;;;;;5007084;28;20533;-75
2022/09/13 08:30:36;;;;;;;0.65;0.65;;;12.00;99.90;;;;;;5006922;28;20380;-75
2022/09/13 08:33:05;;;;;;;1.08;1.05;;;12.00;99.90;;;;;;5006755;28;20026;-74
2022/09/13 08:35:31;;;;;;;1.35;1.25;;;12.00;99.90;;;;;;5006965;28;20030;-74
2022/09/13 08:37:58;;;;;;;1.90;1.20;;;12.00;99.90;;;;;;5008610;28;20040;-74
2022/09/13 08:40:27;;;;;;;0.80;0.70;;;12.00;99.90;;;;;;5008415;28;20270;-75
2022/09/13 08:42:55;;;;;;;1.30;1.20;;;11.90;99.90;;;;;;5008697;28;20045;-75
2022/09/13 08:45:22;;;;;;;5.18;1.85;;;11.90;99.90;;;;;;5007947;28;20092;-74
2022/09/13 08:48:23;;;;;;;1.65;1.13;;;11.90;99.90;;;;;;5008753;28;20061;-75
2022/09/13 08:50:53;;;;;;;0.75;0.75;;;11.40;99.90;;;;;;5088139;28;20044;-74
2022/09/13 08:53:30;;;;;;;2.30;2.10;;;11.90;99.90;;;;;;5023010;28;20030;-75
2022/09/13 08:56:07;;;;;;;2.83;2.58;;;11.90;99.90;;;;;;5007061;28;20120;-74
2022/09/13 08:58:43;;;;;;;;;;;12.00;99.90;;;;;;5008555;28;20392;-75
2022/09/13 09:01:30;;;;;;;1.30;1.20;;;12.00;99.90;;;;;;5006755;28;20433;-75
2022/09/13 09:04:23;;;;;;;3.20;2.15;;;12.00;99.90;;;;;;5007907;28;20477;-74
2022/09/13 09:06:49;;;;;;;1.58;1.48;;;12.00;99.90;;;;;;5008050;28;20037;-75
2022/09/13 09:09:18;;;;;;;1.37;1.23;;;12.00;99.90;;;;;;5007609;28;20128;-74
2022/09/13 09:11:50;;;;;;;1.17;1.17;;;12.00;99.90;;;;;;5007848;28;20481;-75
2022/09/13 09:14:21;;;;;;;0.80;0.80;;;12.00;99.90;;;;;;5006634;28;20113;-74
2022/09/13 09:16:54;;;;;;;1.40;1.30;;;12.10;99.90;;;;;;5007888;28;20087;-74
2022/09/13 09:19:33;;;;;;;0.40;0.40;;;12.10;99.90;;;;;;5007620;28;20037;-74
2022/09/13 09:22:00;;;;;;;0.60;0.60;;;12.10;99.90;;;;;;5007978;28;20113;-74
2022/09/13 09:24:26;;;;;;;1.02;0.93;;;12.00;99.90;;;;;;5006467;28;20034;-74
2022/09/13 09:26:54;;;;;;;2.67;2.50;;;12.10;99.90;;;;;;5007529;28;20045;-75
2022/09/13 09:29:27;;;;;;;0.55;0.55;;;12.10;99.90;;;;;;5006315;28;20025;-76
2022/09/13 09:31:55;;;;;;;1.83;1.73;;;12.00;99.90;;;;;;5007338;28;20034;-74
2022/09/13 09:34:42;;;;;;;1.65;1.48;;;12.00;99.90;;;;;;5006141;28;20041;-75
2022/09/13 09:37:15;;;;;;;0.93;0.93;;;12.00;99.90;;;;;;5006412;28;20033;-75
2022/09/13 09:39:42;;;;;;;0.50;0.50;;;12.00;99.90;;;;;;5006246;28;20108;-74
2022/09/13 09:42:23;;;;;;;1.70;1.60;;;12.10;99.90;;;;;;5006362;28;20545;-75
2022/09/13 09:45:05;;;;;;;1.67;1.58;;;12.10;99.90;;;;;;5007199;28;20050;-75
2022/09/13 09:47:44;;;;;;;1.98;1.25;;;12.10;99.90;;;;;;5007572;28;20333;-74
2022/09/13 09:50:16;;;;;;;0.63;0.63;;;12.10;99.90;;;;;;5005625;28;20075;-75
2022/09/13 09:52:57;;;;;;;1.27;1.17;;;12.00;99.90;;;;;;5007640;28;20042;-75
2022/09/13 09:55:30;;;;;;;0.50;0.50;;;12.00;99.90;;;;;;5005848;28;20041;-75
2022/09/13 09:57:59;;;;;;;1.95;1.77;;;12.00;99.90;;;;;;5007215;28;20077;-75
2022/09/13 10:00:28;;;;;;;1.77;1.67;;;12.00;99.90;;;;;;5007124;28;20105;-74
2022/09/13 10:03:14;;;;;;;0.45;0.45;;;12.00;99.90;;;;;;5005630;28;20064;-75
2022/09/13 10:05:40;;;;;;;2.35;1.88;;;12.00;99.90;;;;;;5006747;28;20497;-74
2022/09/13 10:08:07;;;;;;;0.83;0.83;;;11.90;99.90;;;;;;5007074;28;20055;-74
2022/09/13 10:10:35;;;;;;;2.53;1.48;;;12.00;99.90;;;;;;5005367;28;20283;-75
2022/09/13 10:13:03;;;;;;;0.75;0.75;;;12.00;99.90;;;;;;5006760;28;20026;-75
2022/09/13 10:15:33;;;;;;;1.02;1.02;;;12.00;99.90;;;;;;5005586;28;20062;-75
2022/09/13 10:18:16;;;;;;;3.88;1.52;;;12.00;99.90;;;;;;5006710;28;20076;-75
2022/09/13 10:20:58;;;;;;;1.58;1.42;;;12.00;99.90;;;;;;5006716;28;20022;-75
2022/09/13 10:23:23;;;;;;;1.02;1.02;;;12.90;99.90;;;;;;5005473;28;20026;-74
2022/09/13 10:26:12;;;;;;;1.07;1.07;;;12.00;99.90;;;;;;5005373;28;20037;-75
2022/09/13 10:29:07;;;;;;;4.45;1.73;;;12.00;99.90;;;;;;5006059;28;20041;-74
2022/09/13 10:31:40;;;;;;;1.40;1.30;;;12.00;99.90;;;;;;5006639;28;20038;-75
2022/09/13 10:34:40;;;;;;;0.30;0.30;;;11.90;99.90;;;;;;5006736;28;20136;-75
2022/09/13 10:37:14;;;;;;;0.40;0.40;;;11.90;99.90;;;;;;5026800;28;20053;-75
2022/09/13 10:40:16;;;;;;;1.00;0.63;;;12.00;99.90;;;;;;5009954;28;20045;-75
2022/09/13 10:42:55;;;;;;;0.70;0.70;;;12.10;99.90;;;;;;5010332;28;20041;-74
2022/09/13 10:45:30;;;;;;;0.45;0.45;;;12.10;99.90;;;;;;5009686;28;20132;-74
2022/09/13 10:48:08;;;;;;;0.60;0.60;;;12.10;99.90;;;;;;5009701;28;20048;-74
2022/09/13 10:50:35;;;;;;;0.55;0.55;;;12.10;99.90;;;;;;5009692;28;20037;-75
2022/09/13 10:53:02;;;;;;;1.55;1.42;;;12.10;99.90;;;;;;5009884;28;20029;-75
2022/09/13 10:55:30;;;;;;;0.65;0.65;;;12.10;99.90;;;;;;5008450;28;20029;-76
2022/09/13 10:58:02;;;;;;;1.42;1.33;;;12.10;99.90;;;;;;5009833;28;20396;-75
2022/09/13 11:01:08;;;;;;;11.93;2.13;;;12.10;99.90;;;;;;5009754;28;20093;-74
2022/09/13 11:04:12;;;;;;;2.65;1.50;;;12.10;99.90;;;;;;5009620;28;20052;-74
2022/09/13 11:07:05;;;;;;;0.60;0.60;;;12.10;99.90;;;;;;5010170;28;20393;-75
2022/09/13 11:09:57;;;;;;;0.63;0.63;;;12.10;99.90;;;;;;5008161;28;20559;-75
2022/09/13 11:12:31;;;;;;;0.45;0.45;;;12.10;99.90;;;;;;5008167;28;20541;-75
2022/09/13 11:15:14;;;;;;;0.50;0.50;;;12.10;99.90;;;;;;5008016;28;20612;-74
2022/09/13 11:18:27;;;;;;;1.27;0.93;;;12.10;99.90;;;;;;5009781;28;20041;-75
2022/09/13 11:21:06;;;;;;;1.42;0.90;;;12.00;99.90;;;;;;5026631;28;20054;-74
2022/09/13 11:23:55;;;;;;;1.15;1.05;;;12.00;99.90;;;;;;5009169;28;20044;-74
2022/09/13 11:26:50;;;;;;;0.57;0.57;;;12.00;99.90;;;;;;5007856;28;20044;-75
2022/09/13 11:29:40;;;;;;;0.40;0.40;;;12.00;99.90;;;;;;5009102;28;20032;-75
2022/09/13 11:32:23;;;;;;;0.90;0.90;;;12.00;99.90;;;;;;5009487;28;20523;-75
2022/09/13 11:35:22;;;;;;;1.58;1.48;;;12.00;99.90;;;;;;5008859;28;20057;-74
2022/09/13 11:38:04;;;;;;;0.50;0.50;;;12.00;99.90;;;;;;5007769;28;20557;-75
2022/09/13 11:40:48;;;;;;;0.40;0.40;;;12.00;99.90;;;;;;5009186;28;20369;-75
2022/09/13 11:43:16;;;;;;;0.90;0.90;;;12.00;99.90;;;;;;5008909;28;20500;-74
2022/09/13 11:46:00;;;;;;;0.68;0.68;;;12.00;99.90;;;;;;5008687;28;20416;-74
2022/09/13 11:48:46;;;;;;;0.70;0.70;;;12.00;99.90;;;;;;5006217;28;20034;-74
2022/09/13 11:51:24;;;;;;;0.82;0.82;;;12.00;99.90;;;;;;5009250;28;20406;-75
2022/09/13 11:54:05;;;;;;;18.02;1.85;;;12.00;99.90;;;;;;5008771;28;20022;-75
2022/09/13 11:56:37;;;;;;;0.85;0.85;;;12.00;99.90;;;;;;5007459;28;20124;-74
2022/09/13 11:59:33;;;;;;;0.47;0.47;;;12.10;99.90;;;;;;5007641;28;20033;-76
2022/09/13 12:02:04;;;;;;;1.02;1.02;;;12.10;99.90;;;;;;5007813;28;20034;-75
2022/09/13 12:04:36;;;;;;;0.45;0.45;;;12.10;99.90;;;;;;5007397;28;20030;-75
2022/09/13 12:07:09;;;;;;;1.15;1.15;;;12.10;99.90;;;;;;5007385;28;20038;-74
2022/09/13 12:09:52;;;;;;;0.30;0.30;;;11.00;99.90;;;;;;5007746;28;20059;-75
2022/09/13 12:12:20;;;;;;;0.70;0.70;;;12.10;99.90;;;;;;5008936;28;20030;-75
2022/09/13 12:15:06;;;;;;;0.77;0.77;;;12.10;99.90;;;;;;5008723;28;20025;-68
2022/09/13 12:17:47;;;;;;;3.83;1.95;;;12.10;99.90;;;;;;5008698;28;20377;-70
2022/09/13 12:20:22;;;;;;;1.40;1.30;;;12.20;99.90;;;;;;5008359;28;20029;-69
2022/09/13 12:22:50;;;;;;;1.08;0.82;;;12.20;99.90;;;;;;5007126;28;20044;-69
2022/09/13 12:25:23;;;;;;;0.90;0.63;;;12.20;99.90;;;;;;5008230;28;20448;-68
2022/09/13 12:28:01;;;;;;;0.63;0.63;;;12.20;99.90;;;;;;5007990;28;20037;-69
2022/09/13 12:30:38;;;;;;;;;;;12.20;99.90;;;;;;5008474;28;20037;-69
2022/09/13 12:33:05;;;;;;;0.40;0.40;;;12.20;99.90;;;;;;5008313;28;19913;-69
2022/09/13 12:36:02;;;;;;;0.75;0.75;;;12.20;99.90;;;;;;5008566;28;20226;-69
2022/09/13 12:38:37;;;;;;;0.52;0.52;;;12.20;99.90;;;;;;5008797;28;20495;-69
2022/09/13 12:41:24;;;;;;;0.70;0.70;;;12.20;99.90;;;;;;5008105;28;20022;-70
2022/09/13 12:44:10;;;;;;;0.70;0.70;;;12.20;99.90;;;;;;5008151;28;20037;-70
2022/09/13 12:47:07;;;;;;;2.63;1.38;;;12.20;99.90;;;;;;5008276;28;20038;-68
2022/09/13 12:49:41;;;;;;;1.35;1.30;;;12.10;99.90;;;;;;5008196;28;20394;-69
2022/09/13 12:52:29;;;;;;;1.27;1.15;;;12.10;99.90;;;;;;5008388;28;20029;-69
2022/09/13 12:55:17;;;;;;;6.63;2.05;;;12.10;99.90;;;;;;5006370;28;20022;-70
2022/09/13 12:58:04;;;;;;;1.48;1.38;;;12.00;99.90;;;;;;5008275;28;20125;-68
2022/09/13 13:00:37;;;;;;;0.70;0.70;;;12.00;99.90;;;;;;5007672;28;20113;-70
2022/09/13 13:03:10;;;;;;;0.75;0.75;;;12.00;99.90;;;;;;5007732;28;20076;-69
2022/09/13 13:05:43;;;;;;;1.77;1.13;;;12.10;99.90;;;;;;5007457;28;20410;-69
2022/09/13 13:08:20;;;;;;;0.30;0.30;;;12.10;99.90;;;;;;5007669;28;20033;-70
2022/09/13 13:10:58;;;;;;;;;;;12.10;99.90;;;;;;5007840;28;20485;-69
2022/09/13 13:13:37;;;;;;;0.88;0.88;;;12.10;99.90;;;;;;5007018;28;19909;-66
2022/09/13 13:16:21;;;;;;;0.43;0.43;;;12.20;99.90;;;;;;5006067;28;20022;-70
2022/09/13 13:18:49;;;;;;;0.60;0.60;;;12.50;99.90;;;;;;5007004;28;20051;-68